sensor_id;sensor_type;location;lat;lon;timestamp;P1;durP1;ratioP1;P2;durP2;ratioP2
71610;SDS011;59459;51.172;6.682;2022-07-18T00:01:59;4.60;;;1.70;;
71610;SDS011;59459;51.172;6.682;2022-07-18T00:04:25;5.33;;;1.90;;
71610;SDS011;59459;51.172;6.682;2022-07-18T00:06:51;6.03;;;2.00;;
71610;SDS011;59459;51.172;6.682;2022-07-18T00:09:16;5.72;;;1.88;;
71610;SDS011;59459;51.172;6.682;2022-07-18T00:11:43;6.03;;;1.97;;
71610;SDS011;59459;51.172;6.682;2022-07-18T00:14:08;8.40;;;1.88;;
71610;SDS011;59459;51.172;6.682;2022-07-18T00:16:33;4.43;;;1.73;;
71610;SDS011;59459;51.172;6.682;2022-07-18T00:18:58;5.80;;;2.03;;
71610;SDS011;59459;51.172;6.682;2022-07-18T00:21:25;4.32;;;1.90;;
71610;SDS011;59459;51.172;6.682;2022-07-18T00:23:50;3.97;;;1.63;;
71610;SDS011;59459;51.172;6.682;2022-07-18T00:26:15;5.83;;;1.73;;
71610;SDS011;59459;51.172;6.682;2022-07-18T00:28:41;6.13;;;2.10;;
71610;SDS011;59459;51.172;6.682;2022-07-18T00:31:06;6.67;;;1.90;;
71610;SDS011;59459;51.172;6.682;2022-07-18T00:33:31;5.10;;;1.90;;
71610;SDS011;59459;51.172;6.682;2022-07-18T00:35:56;5.07;;;1.93;;
71610;SDS011;59459;51.172;6.682;2022-07-18T00:38:22;5.47;;;2.00;;
71610;SDS011;59459;51.172;6.682;2022-07-18T00:40:47;5.77;;;1.83;;
71610;SDS011;59459;51.172;6.682;2022-07-18T00:43:13;6.10;;;1.90;;
71610;SDS011;59459;51.172;6.682;2022-07-18T00:45:38;5.32;;;1.80;;
71610;SDS011;59459;51.172;6.682;2022-07-18T00:48:07;5.30;;;2.00;;
71610;SDS011;59459;51.172;6.682;2022-07-18T00:50:32;6.18;;;2.08;;
71610;SDS011;59459;51.172;6.682;2022-07-18T00:52:57;5.00;;;1.70;;
71610;SDS011;59459;51.172;6.682;2022-07-18T00:55:23;5.27;;;1.67;;
71610;SDS011;59459;51.172;6.682;2022-07-18T00:57:48;5.37;;;1.87;;
71610;SDS011;59459;51.172;6.682;2022-07-18T01:00:13;5.20;;;2.00;;
71610;SDS011;59459;51.172;6.682;2022-07-18T01:02:58;7.55;;;2.13;;
71610;SDS011;59459;51.172;6.682;2022-07-18T01:05:23;6.60;;;2.60;;
71610;SDS011;59459;51.172;6.682;2022-07-18T01:07:49;5.40;;;1.70;;
71610;SDS011;59459;51.172;6.682;2022-07-18T01:10:14;4.70;;;1.98;;
71610;SDS011;59459;51.172;6.682;2022-07-18T01:12:39;5.67;;;1.87;;
71610;SDS011;59459;51.172;6.682;2022-07-18T01:15:05;7.33;;;1.80;;
71610;SDS011;59459;51.172;6.682;2022-07-18T01:17:30;7.33;;;2.10;;
71610;SDS011;59459;51.172;6.682;2022-07-18T01:19:55;5.03;;;2.03;;
71610;SDS011;59459;51.172;6.682;2022-07-18T01:22:21;5.37;;;1.73;;
71610;SDS011;59459;51.172;6.682;2022-07-18T01:24:46;5.32;;;1.83;;
71610;SDS011;59459;51.172;6.682;2022-07-18T01:27:15;4.50;;;1.50;;
71610;SDS011;59459;51.172;6.682;2022-07-18T01:29:41;6.45;;;1.85;;
71610;SDS011;59459;51.172;6.682;2022-07-18T01:32:07;5.30;;;1.70;;
71610;SDS011;59459;51.172;6.682;2022-07-18T01:34:32;5.70;;;2.05;;
71610;SDS011;59459;51.172;6.682;2022-07-18T01:36:58;5.87;;;2.27;;
71610;SDS011;59459;51.172;6.682;2022-07-18T01:39:23;8.07;;;1.95;;
71610;SDS011;59459;51.172;6.682;2022-07-18T01:41:58;4.10;;;1.80;;
71610;SDS011;59459;51.172;6.682;2022-07-18T01:44:24;6.03;;;1.92;;
71610;SDS011;59459;51.172;6.682;2022-07-18T01:46:50;5.17;;;1.90;;
71610;SDS011;59459;51.172;6.682;2022-07-18T01:49:15;4.67;;;1.53;;
71610;SDS011;59459;51.172;6.682;2022-07-18T01:51:44;4.87;;;1.90;;
71610;SDS011;59459;51.172;6.682;2022-07-18T01:54:09;6.03;;;1.92;;
71610;SDS011;59459;51.172;6.682;2022-07-18T01:56:34;8.10;;;2.00;;
71610;SDS011;59459;51.172;6.682;2022-07-18T01:59:01;5.47;;;1.83;;
71610;SDS011;59459;51.172;6.682;2022-07-18T02:01:26;4.18;;;1.50;;
71610;SDS011;59459;51.172;6.682;2022-07-18T02:03:51;4.97;;;1.73;;
71610;SDS011;59459;51.172;6.682;2022-07-18T02:06:16;3.67;;;1.60;;
71610;SDS011;59459;51.172;6.682;2022-07-18T02:08:41;4.57;;;1.80;;
71610;SDS011;59459;51.172;6.682;2022-07-18T02:11:07;6.30;;;2.03;;
71610;SDS011;59459;51.172;6.682;2022-07-18T02:13:32;5.57;;;1.63;;
71610;SDS011;59459;51.172;6.682;2022-07-18T02:15:57;5.50;;;1.90;;
71610;SDS011;59459;51.172;6.682;2022-07-18T02:18:22;6.47;;;1.80;;
71610;SDS011;59459;51.172;6.682;2022-07-18T02:20:48;5.50;;;2.00;;
71610;SDS011;59459;51.172;6.682;2022-07-18T02:23:13;4.67;;;1.80;;
71610;SDS011;59459;51.172;6.682;2022-07-18T02:25:38;4.97;;;2.00;;
71610;SDS011;59459;51.172;6.682;2022-07-18T02:28:04;4.47;;;1.57;;
71610;SDS011;59459;51.172;6.682;2022-07-18T02:30:29;4.32;;;2.03;;
71610;SDS011;59459;51.172;6.682;2022-07-18T02:32:55;5.27;;;1.90;;
71610;SDS011;59459;51.172;6.682;2022-07-18T02:35:20;6.07;;;1.90;;
71610;SDS011;59459;51.172;6.682;2022-07-18T02:37:45;7.57;;;1.43;;
71610;SDS011;59459;51.172;6.682;2022-07-18T02:40:10;5.20;;;1.73;;
71610;SDS011;59459;51.172;6.682;2022-07-18T02:42:36;4.30;;;1.80;;
71610;SDS011;59459;51.172;6.682;2022-07-18T02:45:02;4.57;;;1.83;;
71610;SDS011;59459;51.172;6.682;2022-07-18T02:47:27;4.03;;;1.60;;
71610;SDS011;59459;51.172;6.682;2022-07-18T02:49:53;3.57;;;1.40;;
71610;SDS011;59459;51.172;6.682;2022-07-18T02:52:18;3.70;;;1.57;;
71610;SDS011;59459;51.172;6.682;2022-07-18T02:54:43;6.00;;;1.93;;
71610;SDS011;59459;51.172;6.682;2022-07-18T02:57:09;5.03;;;1.57;;
71610;SDS011;59459;51.172;6.682;2022-07-18T02:59:34;5.97;;;1.83;;
71610;SDS011;59459;51.172;6.682;2022-07-18T03:01:59;6.33;;;1.80;;
71610;SDS011;59459;51.172;6.682;2022-07-18T03:04:25;5.83;;;1.87;;
71610;SDS011;59459;51.172;6.682;2022-07-18T03:06:50;4.10;;;1.63;;
71610;SDS011;59459;51.172;6.682;2022-07-18T03:09:16;6.65;;;1.95;;
71610;SDS011;59459;51.172;6.682;2022-07-18T03:11:41;4.83;;;1.47;;
71610;SDS011;59459;51.172;6.682;2022-07-18T03:14:07;4.93;;;1.60;;
71610;SDS011;59459;51.172;6.682;2022-07-18T03:16:32;5.43;;;2.00;;
71610;SDS011;59459;51.172;6.682;2022-07-18T03:18:57;4.53;;;1.53;;
71610;SDS011;59459;51.172;6.682;2022-07-18T03:21:22;5.23;;;1.83;;
71610;SDS011;59459;51.172;6.682;2022-07-18T03:23:48;5.03;;;1.67;;
71610;SDS011;59459;51.172;6.682;2022-07-18T03:26:13;4.17;;;1.73;;
71610;SDS011;59459;51.172;6.682;2022-07-18T03:28:38;5.87;;;2.00;;
71610;SDS011;59459;51.172;6.682;2022-07-18T03:31:03;7.17;;;2.10;;
71610;SDS011;59459;51.172;6.682;2022-07-18T03:33:29;6.00;;;1.80;;
71610;SDS011;59459;51.172;6.682;2022-07-18T03:35:54;6.40;;;1.93;;
71610;SDS011;59459;51.172;6.682;2022-07-18T03:38:19;5.80;;;2.27;;
71610;SDS011;59459;51.172;6.682;2022-07-18T03:40:45;5.00;;;2.13;;
71610;SDS011;59459;51.172;6.682;2022-07-18T03:43:10;4.80;;;1.97;;
71610;SDS011;59459;51.172;6.682;2022-07-18T03:45:35;6.50;;;1.63;;
71610;SDS011;59459;51.172;6.682;2022-07-18T03:48:00;6.67;;;2.27;;
71610;SDS011;59459;51.172;6.682;2022-07-18T03:50:25;6.27;;;2.10;;
71610;SDS011;59459;51.172;6.682;2022-07-18T03:52:52;5.63;;;2.00;;
71610;SDS011;59459;51.172;6.682;2022-07-18T03:55:17;5.00;;;1.92;;
71610;SDS011;59459;51.172;6.682;2022-07-18T03:57:43;5.53;;;2.10;;
71610;SDS011;59459;51.172;6.682;2022-07-18T04:00:08;5.17;;;1.60;;
71610;SDS011;59459;51.172;6.682;2022-07-18T04:02:37;6.00;;;1.70;;
71610;SDS011;59459;51.172;6.682;2022-07-18T04:05:02;6.80;;;2.20;;
71610;SDS011;59459;51.172;6.682;2022-07-18T04:07:28;5.05;;;2.10;;
71610;SDS011;59459;51.172;6.682;2022-07-18T04:09:53;5.07;;;1.80;;
71610;SDS011;59459;51.172;6.682;2022-07-18T04:12:18;7.53;;;2.23;;
71610;SDS011;59459;51.172;6.682;2022-07-18T04:14:43;5.47;;;2.37;;
71610;SDS011;59459;51.172;6.682;2022-07-18T04:17:09;5.87;;;1.80;;
71610;SDS011;59459;51.172;6.682;2022-07-18T04:19:34;5.33;;;2.00;;
71610;SDS011;59459;51.172;6.682;2022-07-18T04:21:59;6.47;;;2.50;;
71610;SDS011;59459;51.172;6.682;2022-07-18T04:24:24;4.93;;;1.70;;
71610;SDS011;59459;51.172;6.682;2022-07-18T04:26:50;4.23;;;1.77;;
71610;SDS011;59459;51.172;6.682;2022-07-18T04:29:15;5.57;;;1.77;;
71610;SDS011;59459;51.172;6.682;2022-07-18T04:31:41;4.90;;;1.67;;
71610;SDS011;59459;51.172;6.682;2022-07-18T04:34:06;4.73;;;1.53;;
71610;SDS011;59459;51.172;6.682;2022-07-18T04:36:31;4.30;;;1.83;;
71610;SDS011;59459;51.172;6.682;2022-07-18T04:38:56;7.53;;;1.87;;
71610;SDS011;59459;51.172;6.682;2022-07-18T04:41:21;5.07;;;1.60;;
71610;SDS011;59459;51.172;6.682;2022-07-18T04:43:50;7.20;;;1.65;;
71610;SDS011;59459;51.172;6.682;2022-07-18T04:46:15;6.17;;;1.50;;
71610;SDS011;59459;51.172;6.682;2022-07-18T04:48:40;5.07;;;1.90;;
71610;SDS011;59459;51.172;6.682;2022-07-18T04:51:05;3.27;;;1.70;;
71610;SDS011;59459;51.172;6.682;2022-07-18T04:53:31;3.83;;;1.10;;
71610;SDS011;59459;51.172;6.682;2022-07-18T04:55:56;5.27;;;1.53;;
71610;SDS011;59459;51.172;6.682;2022-07-18T04:58:21;4.83;;;1.23;;
71610;SDS011;59459;51.172;6.682;2022-07-18T05:00:46;6.57;;;1.10;;
71610;SDS011;59459;51.172;6.682;2022-07-18T05:03:13;4.50;;;1.27;;
71610;SDS011;59459;51.172;6.682;2022-07-18T05:05:38;5.10;;;1.13;;
71610;SDS011;59459;51.172;6.682;2022-07-18T05:08:03;5.77;;;1.40;;
71610;SDS011;59459;51.172;6.682;2022-07-18T05:10:29;4.73;;;1.23;;
71610;SDS011;59459;51.172;6.682;2022-07-18T05:12:54;4.00;;;1.50;;
71610;SDS011;59459;51.172;6.682;2022-07-18T05:15:21;4.70;;;1.45;;
71610;SDS011;59459;51.172;6.682;2022-07-18T05:17:47;4.45;;;1.25;;
71610;SDS011;59459;51.172;6.682;2022-07-18T05:20:14;5.80;;;1.40;;
71610;SDS011;59459;51.172;6.682;2022-07-18T05:22:39;5.60;;;1.20;;
71610;SDS011;59459;51.172;6.682;2022-07-18T05:25:05;6.37;;;1.73;;
71610;SDS011;59459;51.172;6.682;2022-07-18T05:27:30;4.32;;;1.52;;
71610;SDS011;59459;51.172;6.682;2022-07-18T05:29:56;5.47;;;1.43;;
71610;SDS011;59459;51.172;6.682;2022-07-18T05:32:21;6.50;;;1.53;;
71610;SDS011;59459;51.172;6.682;2022-07-18T05:34:46;6.97;;;1.90;;
71610;SDS011;59459;51.172;6.682;2022-07-18T05:37:12;4.20;;;1.40;;
71610;SDS011;59459;51.172;6.682;2022-07-18T05:39:37;3.67;;;1.20;;
71610;SDS011;59459;51.172;6.682;2022-07-18T05:42:03;5.70;;;1.50;;
71610;SDS011;59459;51.172;6.682;2022-07-18T05:44:28;5.13;;;1.50;;
71610;SDS011;59459;51.172;6.682;2022-07-18T05:46:53;3.60;;;1.20;;
71610;SDS011;59459;51.172;6.682;2022-07-18T05:49:18;3.63;;;1.33;;
71610;SDS011;59459;51.172;6.682;2022-07-18T05:51:44;6.73;;;1.30;;
71610;SDS011;59459;51.172;6.682;2022-07-18T05:54:10;4.10;;;1.67;;
71610;SDS011;59459;51.172;6.682;2022-07-18T05:56:35;5.43;;;1.57;;
71610;SDS011;59459;51.172;6.682;2022-07-18T05:59:00;7.77;;;1.70;;
71610;SDS011;59459;51.172;6.682;2022-07-18T06:01:25;4.47;;;1.40;;
71610;SDS011;59459;51.172;6.682;2022-07-18T06:03:51;4.77;;;1.40;;
71610;SDS011;59459;51.172;6.682;2022-07-18T06:06:16;7.70;;;1.60;;
71610;SDS011;59459;51.172;6.682;2022-07-18T06:08:43;5.28;;;1.92;;
71610;SDS011;59459;51.172;6.682;2022-07-18T06:11:08;5.63;;;1.23;;
71610;SDS011;59459;51.172;6.682;2022-07-18T06:13:37;4.60;;;1.80;;
71610;SDS011;59459;51.172;6.682;2022-07-18T06:16:04;5.90;;;1.60;;
71610;SDS011;59459;51.172;6.682;2022-07-18T06:18:29;6.83;;;1.67;;
71610;SDS011;59459;51.172;6.682;2022-07-18T06:20:54;6.77;;;1.47;;
71610;SDS011;59459;51.172;6.682;2022-07-18T06:23:19;5.90;;;1.47;;
71610;SDS011;59459;51.172;6.682;2022-07-18T06:25:45;8.93;;;1.57;;
71610;SDS011;59459;51.172;6.682;2022-07-18T06:28:10;4.27;;;1.27;;
71610;SDS011;59459;51.172;6.682;2022-07-18T06:30:35;5.47;;;1.90;;
71610;SDS011;59459;51.172;6.682;2022-07-18T06:33:00;7.33;;;1.90;;
71610;SDS011;59459;51.172;6.682;2022-07-18T06:35:29;5.07;;;1.77;;
71610;SDS011;59459;51.172;6.682;2022-07-18T06:37:55;5.60;;;1.60;;
71610;SDS011;59459;51.172;6.682;2022-07-18T06:40:20;3.93;;;1.47;;
71610;SDS011;59459;51.172;6.682;2022-07-18T06:42:45;4.15;;;1.17;;
71610;SDS011;59459;51.172;6.682;2022-07-18T06:45:10;5.83;;;1.40;;
71610;SDS011;59459;51.172;6.682;2022-07-18T06:47:36;2.97;;;1.03;;
71610;SDS011;59459;51.172;6.682;2022-07-18T06:50:01;8.80;;;1.23;;
71610;SDS011;59459;51.172;6.682;2022-07-18T06:52:26;4.63;;;1.40;;
71610;SDS011;59459;51.172;6.682;2022-07-18T06:54:51;4.73;;;1.30;;
71610;SDS011;59459;51.172;6.682;2022-07-18T06:57:16;5.57;;;1.23;;
71610;SDS011;59459;51.172;6.682;2022-07-18T06:59:44;6.30;;;1.40;;
71610;SDS011;59459;51.172;6.682;2022-07-18T07:02:09;3.67;;;1.40;;
71610;SDS011;59459;51.172;6.682;2022-07-18T07:04:35;3.33;;;1.20;;
71610;SDS011;59459;51.172;6.682;2022-07-18T07:07:00;4.60;;;1.30;;
71610;SDS011;59459;51.172;6.682;2022-07-18T07:09:25;7.53;;;1.40;;
71610;SDS011;59459;51.172;6.682;2022-07-18T07:11:50;6.50;;;1.40;;
71610;SDS011;59459;51.172;6.682;2022-07-18T07:14:16;5.33;;;1.30;;
71610;SDS011;59459;51.172;6.682;2022-07-18T07:16:41;2.97;;;1.10;;
71610;SDS011;59459;51.172;6.682;2022-07-18T07:19:06;5.47;;;1.47;;
71610;SDS011;59459;51.172;6.682;2022-07-18T07:21:31;4.20;;;1.20;;
71610;SDS011;59459;51.172;6.682;2022-07-18T07:23:56;5.60;;;1.33;;
71610;SDS011;59459;51.172;6.682;2022-07-18T07:26:22;5.70;;;1.27;;
71610;SDS011;59459;51.172;6.682;2022-07-18T07:28:47;5.43;;;1.40;;
71610;SDS011;59459;51.172;6.682;2022-07-18T07:31:12;4.33;;;1.10;;
71610;SDS011;59459;51.172;6.682;2022-07-18T07:33:37;4.13;;;1.27;;
71610;SDS011;59459;51.172;6.682;2022-07-18T07:36:03;4.20;;;1.20;;
71610;SDS011;59459;51.172;6.682;2022-07-18T07:38:29;3.03;;;1.33;;
71610;SDS011;59459;51.172;6.682;2022-07-18T07:40:55;3.30;;;1.17;;
71610;SDS011;59459;51.172;6.682;2022-07-18T07:43:20;9.00;;;1.23;;
71610;SDS011;59459;51.172;6.682;2022-07-18T07:45:46;7.93;;;1.17;;
71610;SDS011;59459;51.172;6.682;2022-07-18T07:48:12;5.18;;;1.63;;
71610;SDS011;59459;51.172;6.682;2022-07-18T07:50:37;3.80;;;1.20;;
71610;SDS011;59459;51.172;6.682;2022-07-18T07:53:02;4.10;;;1.30;;
71610;SDS011;59459;51.172;6.682;2022-07-18T07:55:28;3.27;;;1.47;;
71610;SDS011;59459;51.172;6.682;2022-07-18T07:57:53;3.73;;;1.27;;
71610;SDS011;59459;51.172;6.682;2022-07-18T08:00:18;4.77;;;1.10;;
71610;SDS011;59459;51.172;6.682;2022-07-18T08:02:50;4.13;;;1.20;;
71610;SDS011;59459;51.172;6.682;2022-07-18T08:05:16;6.70;;;1.57;;
71610;SDS011;59459;51.172;6.682;2022-07-18T08:07:41;2.90;;;0.93;;
71610;SDS011;59459;51.172;6.682;2022-07-18T08:10:06;2.53;;;1.00;;
71610;SDS011;59459;51.172;6.682;2022-07-18T08:12:31;2.60;;;1.02;;
71610;SDS011;59459;51.172;6.682;2022-07-18T08:14:57;4.43;;;1.60;;
71610;SDS011;59459;51.172;6.682;2022-07-18T08:17:22;7.50;;;1.40;;
71610;SDS011;59459;51.172;6.682;2022-07-18T08:19:47;5.20;;;1.47;;
71610;SDS011;59459;51.172;6.682;2022-07-18T08:22:12;7.33;;;1.57;;
71610;SDS011;59459;51.172;6.682;2022-07-18T08:24:37;3.80;;;1.00;;
71610;SDS011;59459;51.172;6.682;2022-07-18T08:27:03;4.80;;;1.27;;
71610;SDS011;59459;51.172;6.682;2022-07-18T08:29:28;4.30;;;1.13;;
71610;SDS011;59459;51.172;6.682;2022-07-18T08:31:53;6.27;;;1.57;;
71610;SDS011;59459;51.172;6.682;2022-07-18T08:34:19;5.25;;;1.70;;
71610;SDS011;59459;51.172;6.682;2022-07-18T08:36:44;3.97;;;1.57;;
71610;SDS011;59459;51.172;6.682;2022-07-18T08:39:10;5.60;;;1.30;;
71610;SDS011;59459;51.172;6.682;2022-07-18T08:41:35;4.23;;;1.10;;
71610;SDS011;59459;51.172;6.682;2022-07-18T08:44:00;6.33;;;1.60;;
71610;SDS011;59459;51.172;6.682;2022-07-18T08:46:26;4.35;;;1.33;;
71610;SDS011;59459;51.172;6.682;2022-07-18T08:48:52;3.30;;;1.27;;
71610;SDS011;59459;51.172;6.682;2022-07-18T08:51:20;3.35;;;1.50;;
71610;SDS011;59459;51.172;6.682;2022-07-18T08:53:47;4.53;;;1.70;;
71610;SDS011;59459;51.172;6.682;2022-07-18T08:56:13;3.80;;;1.27;;
71610;SDS011;59459;51.172;6.682;2022-07-18T08:58:38;3.97;;;1.33;;
71610;SDS011;59459;51.172;6.682;2022-07-18T09:01:04;4.77;;;1.47;;
71610;SDS011;59459;51.172;6.682;2022-07-18T09:03:29;4.83;;;1.83;;
71610;SDS011;59459;51.172;6.682;2022-07-18T09:08:29;8.40;;;1.40;;
71610;SDS011;59459;51.172;6.682;2022-07-18T09:10:56;3.75;;;1.30;;
71610;SDS011;59459;51.172;6.682;2022-07-18T09:13:25;5.63;;;1.38;;
71610;SDS011;59459;51.172;6.682;2022-07-18T09:16:02;6.33;;;1.50;;
71610;SDS011;59459;51.172;6.682;2022-07-18T09:18:28;3.50;;;1.30;;
71610;SDS011;59459;51.172;6.682;2022-07-18T09:21:00;3.60;;;1.73;;
71610;SDS011;59459;51.172;6.682;2022-07-18T09:23:27;4.60;;;1.50;;
71610;SDS011;59459;51.172;6.682;2022-07-18T09:25:52;5.40;;;1.53;;
71610;SDS011;59459;51.172;6.682;2022-07-18T09:28:17;4.80;;;1.57;;
71610;SDS011;59459;51.172;6.682;2022-07-18T09:30:43;3.70;;;1.53;;
71610;SDS011;59459;51.172;6.682;2022-07-18T09:33:08;5.93;;;1.80;;
71610;SDS011;59459;51.172;6.682;2022-07-18T09:38:07;4.70;;;1.33;;
71610;SDS011;59459;51.172;6.682;2022-07-18T09:40:46;4.55;;;1.70;;
71610;SDS011;59459;51.172;6.682;2022-07-18T09:43:12;3.97;;;1.58;;
71610;SDS011;59459;51.172;6.682;2022-07-18T09:45:42;5.60;;;1.67;;
71610;SDS011;59459;51.172;6.682;2022-07-18T09:48:11;4.05;;;1.48;;
71610;SDS011;59459;51.172;6.682;2022-07-18T09:50:38;3.20;;;1.35;;
71610;SDS011;59459;51.172;6.682;2022-07-18T09:53:22;4.47;;;1.83;;
71610;SDS011;59459;51.172;6.682;2022-07-18T09:55:52;3.83;;;1.60;;
71610;SDS011;59459;51.172;6.682;2022-07-18T09:58:27;5.13;;;1.93;;
71610;SDS011;59459;51.172;6.682;2022-07-18T10:00:54;3.70;;;1.30;;
71610;SDS011;59459;51.172;6.682;2022-07-18T10:03:20;4.97;;;1.77;;
71610;SDS011;59459;51.172;6.682;2022-07-18T10:05:46;3.95;;;1.70;;
71610;SDS011;59459;51.172;6.682;2022-07-18T10:08:12;4.47;;;1.93;;
71610;SDS011;59459;51.172;6.682;2022-07-18T10:10:38;9.20;;;1.95;;
71610;SDS011;59459;51.172;6.682;2022-07-18T10:13:04;4.78;;;2.15;;
71610;SDS011;59459;51.172;6.682;2022-07-18T10:15:31;3.80;;;2.28;;
71610;SDS011;59459;51.172;6.682;2022-07-18T10:17:57;4.43;;;2.10;;
71610;SDS011;59459;51.172;6.682;2022-07-18T10:20:30;4.07;;;1.73;;
71610;SDS011;59459;51.172;6.682;2022-07-18T10:22:56;4.45;;;2.00;;
71610;SDS011;59459;51.172;6.682;2022-07-18T10:25:23;4.95;;;2.50;;
71610;SDS011;59459;51.172;6.682;2022-07-18T10:30:17;4.40;;;2.60;;
71610;SDS011;59459;51.172;6.682;2022-07-18T10:32:44;6.00;;;2.30;;
71610;SDS011;59459;51.172;6.682;2022-07-18T10:35:10;3.70;;;2.38;;
71610;SDS011;59459;51.172;6.682;2022-07-18T10:37:39;5.07;;;2.70;;
71610;SDS011;59459;51.172;6.682;2022-07-18T10:40:24;8.37;;;3.17;;
71610;SDS011;59459;51.172;6.682;2022-07-18T10:43:30;5.38;;;2.50;;
71610;SDS011;59459;51.172;6.682;2022-07-18T10:45:50;5.78;;;2.53;;
71610;SDS011;59459;51.172;6.682;2022-07-18T10:56:11;5.78;;;3.08;;
71610;SDS011;59459;51.172;6.682;2022-07-18T10:58:39;6.53;;;3.10;;
71610;SDS011;59459;51.172;6.682;2022-07-18T11:01:05;4.97;;;2.95;;
71610;SDS011;59459;51.172;6.682;2022-07-18T11:03:34;6.85;;;2.90;;
71610;SDS011;59459;51.172;6.682;2022-07-18T11:05:59;6.73;;;3.30;;
71610;SDS011;59459;51.172;6.682;2022-07-18T11:08:25;6.73;;;3.00;;
71610;SDS011;59459;51.172;6.682;2022-07-18T11:18:25;4.78;;;3.10;;
71610;SDS011;59459;51.172;6.682;2022-07-18T11:20:51;6.40;;;3.43;;
71610;SDS011;59459;51.172;6.682;2022-07-18T11:23:21;7.30;;;3.15;;
71610;SDS011;59459;51.172;6.682;2022-07-18T11:25:47;6.53;;;2.90;;
71610;SDS011;59459;51.172;6.682;2022-07-18T11:28:12;5.90;;;3.40;;
71610;SDS011;59459;51.172;6.682;2022-07-18T11:30:38;6.47;;;3.33;;
71610;SDS011;59459;51.172;6.682;2022-07-18T11:33:04;4.43;;;2.80;;
71610;SDS011;59459;51.172;6.682;2022-07-18T11:35:30;4.68;;;3.47;;
71610;SDS011;59459;51.172;6.682;2022-07-18T11:37:55;4.80;;;3.20;;
71610;SDS011;59459;51.172;6.682;2022-07-18T11:40:21;6.70;;;3.33;;
71610;SDS011;59459;51.172;6.682;2022-07-18T11:42:46;6.90;;;3.55;;
71610;SDS011;59459;51.172;6.682;2022-07-18T11:45:13;5.63;;;3.50;;
71610;SDS011;59459;51.172;6.682;2022-07-18T11:47:48;6.00;;;3.15;;
71610;SDS011;59459;51.172;6.682;2022-07-18T11:50:15;8.15;;;3.80;;
71610;SDS011;59459;51.172;6.682;2022-07-18T11:52:40;6.57;;;3.50;;
71610;SDS011;59459;51.172;6.682;2022-07-18T11:55:07;8.05;;;3.25;;
71610;SDS011;59459;51.172;6.682;2022-07-18T11:57:32;5.53;;;3.40;;
71610;SDS011;59459;51.172;6.682;2022-07-18T11:59:58;7.18;;;3.20;;
71610;SDS011;59459;51.172;6.682;2022-07-18T12:05:08;5.50;;;3.63;;
71610;SDS011;59459;51.172;6.682;2022-07-18T12:07:33;4.07;;;2.90;;
71610;SDS011;59459;51.172;6.682;2022-07-18T12:10:13;5.57;;;3.80;;
71610;SDS011;59459;51.172;6.682;2022-07-18T12:12:39;5.70;;;3.65;;
71610;SDS011;59459;51.172;6.682;2022-07-18T12:15:06;5.70;;;3.60;;
71610;SDS011;59459;51.172;6.682;2022-07-18T12:17:41;5.88;;;3.42;;
71610;SDS011;59459;51.172;6.682;2022-07-18T12:25:33;5.20;;;3.08;;
71610;SDS011;59459;51.172;6.682;2022-07-18T12:28:11;4.70;;;2.50;;
71610;SDS011;59459;51.172;6.682;2022-07-18T12:30:36;5.47;;;2.75;;
71610;SDS011;59459;51.172;6.682;2022-07-18T12:33:01;4.87;;;2.40;;
71610;SDS011;59459;51.172;6.682;2022-07-18T12:35:33;4.65;;;2.13;;
71610;SDS011;59459;51.172;6.682;2022-07-18T12:38:04;4.73;;;1.97;;
71610;SDS011;59459;51.172;6.682;2022-07-18T12:43:05;4.68;;;2.00;;
71610;SDS011;59459;51.172;6.682;2022-07-18T12:45:31;4.85;;;1.70;;
71610;SDS011;59459;51.172;6.682;2022-07-18T12:47:56;7.53;;;2.13;;
71610;SDS011;59459;51.172;6.682;2022-07-18T12:50:22;5.43;;;2.07;;
71610;SDS011;59459;51.172;6.682;2022-07-18T12:52:47;3.23;;;1.63;;
71610;SDS011;59459;51.172;6.682;2022-07-18T12:55:12;5.13;;;1.80;;
71610;SDS011;59459;51.172;6.682;2022-07-18T12:57:37;4.73;;;1.63;;
71610;SDS011;59459;51.172;6.682;2022-07-18T13:00:03;5.27;;;1.60;;
71610;SDS011;59459;51.172;6.682;2022-07-18T13:02:28;3.03;;;1.50;;
71610;SDS011;59459;51.172;6.682;2022-07-18T13:04:54;4.27;;;1.57;;
71610;SDS011;59459;51.172;6.682;2022-07-18T13:07:19;4.43;;;1.70;;
71610;SDS011;59459;51.172;6.682;2022-07-18T13:09:44;5.13;;;1.70;;
71610;SDS011;59459;51.172;6.682;2022-07-18T13:12:09;6.47;;;1.70;;
71610;SDS011;59459;51.172;6.682;2022-07-18T13:14:34;5.80;;;1.42;;
71610;SDS011;59459;51.172;6.682;2022-07-18T13:17:00;3.80;;;1.57;;
71610;SDS011;59459;51.172;6.682;2022-07-18T13:19:26;7.63;;;1.90;;
71610;SDS011;59459;51.172;6.682;2022-07-18T13:21:51;4.70;;;1.57;;
71610;SDS011;59459;51.172;6.682;2022-07-18T13:24:16;5.47;;;1.63;;
71610;SDS011;59459;51.172;6.682;2022-07-18T13:26:41;5.50;;;1.58;;
71610;SDS011;59459;51.172;6.682;2022-07-18T13:29:07;4.07;;;1.33;;
71610;SDS011;59459;51.172;6.682;2022-07-18T13:31:32;2.80;;;1.20;;
71610;SDS011;59459;51.172;6.682;2022-07-18T13:33:58;5.47;;;1.60;;
71610;SDS011;59459;51.172;6.682;2022-07-18T13:36:23;5.10;;;1.50;;
71610;SDS011;59459;51.172;6.682;2022-07-18T13:38:48;7.80;;;1.60;;
71610;SDS011;59459;51.172;6.682;2022-07-18T13:41:14;5.57;;;1.63;;
71610;SDS011;59459;51.172;6.682;2022-07-18T13:43:39;3.83;;;1.43;;
71610;SDS011;59459;51.172;6.682;2022-07-18T13:46:05;5.60;;;1.50;;
71610;SDS011;59459;51.172;6.682;2022-07-18T13:48:30;4.73;;;1.40;;
71610;SDS011;59459;51.172;6.682;2022-07-18T13:50:56;4.90;;;1.50;;
71610;SDS011;59459;51.172;6.682;2022-07-18T13:53:21;4.27;;;1.40;;
71610;SDS011;59459;51.172;6.682;2022-07-18T13:55:46;3.93;;;1.43;;
71610;SDS011;59459;51.172;6.682;2022-07-18T13:58:11;5.80;;;1.27;;
71610;SDS011;59459;51.172;6.682;2022-07-18T14:00:37;6.07;;;1.70;;
71610;SDS011;59459;51.172;6.682;2022-07-18T14:03:02;4.97;;;1.40;;
71610;SDS011;59459;51.172;6.682;2022-07-18T14:05:29;5.70;;;1.65;;
71610;SDS011;59459;51.172;6.682;2022-07-18T14:07:54;5.63;;;1.40;;
71610;SDS011;59459;51.172;6.682;2022-07-18T14:10:19;4.17;;;1.60;;
71610;SDS011;59459;51.172;6.682;2022-07-18T14:12:44;3.63;;;1.50;;
71610;SDS011;59459;51.172;6.682;2022-07-18T14:15:10;5.25;;;1.70;;
71610;SDS011;59459;51.172;6.682;2022-07-18T14:17:35;4.83;;;1.50;;
71610;SDS011;59459;51.172;6.682;2022-07-18T14:20:00;4.43;;;1.30;;
71610;SDS011;59459;51.172;6.682;2022-07-18T14:22:26;3.70;;;1.23;;
71610;SDS011;59459;51.172;6.682;2022-07-18T14:24:51;5.30;;;1.10;;
71610;SDS011;59459;51.172;6.682;2022-07-18T14:27:16;4.07;;;1.23;;
71610;SDS011;59459;51.172;6.682;2022-07-18T14:29:41;5.03;;;1.57;;
71610;SDS011;59459;51.172;6.682;2022-07-18T14:32:07;4.22;;;1.50;;
71610;SDS011;59459;51.172;6.682;2022-07-18T14:34:33;4.60;;;1.57;;
71610;SDS011;59459;51.172;6.682;2022-07-18T14:36:58;3.63;;;1.10;;
71610;SDS011;59459;51.172;6.682;2022-07-18T14:39:23;5.57;;;1.70;;
71610;SDS011;59459;51.172;6.682;2022-07-18T14:41:49;2.87;;;1.53;;
71610;SDS011;59459;51.172;6.682;2022-07-18T14:44:14;6.77;;;1.50;;
71610;SDS011;59459;51.172;6.682;2022-07-18T14:46:39;4.20;;;1.50;;
71610;SDS011;59459;51.172;6.682;2022-07-18T14:49:04;4.17;;;1.40;;
71610;SDS011;59459;51.172;6.682;2022-07-18T14:51:30;6.87;;;1.70;;
71610;SDS011;59459;51.172;6.682;2022-07-18T14:53:55;6.47;;;1.90;;
71610;SDS011;59459;51.172;6.682;2022-07-18T14:56:20;4.30;;;1.37;;
71610;SDS011;59459;51.172;6.682;2022-07-18T14:58:45;2.13;;;1.00;;
71610;SDS011;59459;51.172;6.682;2022-07-18T15:01:10;3.93;;;1.13;;
71610;SDS011;59459;51.172;6.682;2022-07-18T15:03:36;5.00;;;1.40;;
71610;SDS011;59459;51.172;6.682;2022-07-18T15:06:01;3.33;;;1.40;;
71610;SDS011;59459;51.172;6.682;2022-07-18T15:08:26;3.93;;;1.20;;
71610;SDS011;59459;51.172;6.682;2022-07-18T15:10:51;5.70;;;1.50;;
71610;SDS011;59459;51.172;6.682;2022-07-18T15:13:17;4.90;;;1.40;;
71610;SDS011;59459;51.172;6.682;2022-07-18T15:15:42;4.73;;;1.90;;